Time;durP1;ratioP1;P1;durP2;ratioP2;P2;SDS_P1;SDS_P2;PMS_P1;PMS_P2;Temp;Humidity;BMP_temperature;BMP_pressure;BME280_temperature;BME280_humidity;BME280_pressure;Samples;Min_cycle;Max_cycle;Signal;HPM_P1;HPM_P2
2022/04/09 00:00:44;;;;;;;0.50;0.30;;;;;;;10.82;100.00;98698.37;5557338;32;32704;-67
2022/04/09 00:03:47;;;;;;;0.73;0.50;;;;;;;10.72;100.00;98695.34;5570960;32;35515;-67
2022/04/09 00:06:49;;;;;;;1.75;0.35;;;;;;;10.72;100.00;98690.03;5557282;32;34561;-67
2022/04/09 00:09:52;;;;;;;2.00;0.70;;;;;;;10.85;100.00;98683.84;5570798;32;34188;-67
2022/04/09 00:12:54;;;;;;;1.87;0.50;;;;;;;10.89;100.00;98690.41;5570764;32;34187;-67
2022/04/09 00:15:58;;;;;;;1.15;0.52;;;;;;;10.81;100.00;98693.25;5557035;32;32791;-66
2022/04/09 00:19:00;;;;;;;1.67;0.55;;;;;;;10.69;100.00;98681.69;5556982;32;33549;-67
2022/04/09 00:22:04;;;;;;;0.85;0.50;;;;;;;10.71;100.00;98675.16;5556953;32;33453;-67
2022/04/09 00:25:14;;;;;;;1.50;0.52;;;;;;;10.81;100.00;98669.41;5570680;32;34198;-67
2022/04/09 00:28:16;;;;;;;2.53;0.70;;;;;;;10.82;100.00;98663.06;5570696;32;34146;-67
2022/04/09 00:31:19;;;;;;;0.73;0.40;;;;;;;10.86;100.00;98656.31;5556773;32;32785;-67
2022/04/09 00:34:22;;;;;;;0.60;0.50;;;;;;;10.92;100.00;98655.47;5556906;32;35450;-66
2022/04/09 00:37:24;;;;;;;2.25;0.73;;;;;;;10.92;100.00;98646.69;5556744;32;32968;-68
2022/04/09 00:40:27;;;;;;;1.02;0.60;;;;;;;10.92;100.00;98641.38;5570491;32;34155;-67
2022/04/09 00:43:30;;;;;;;0.75;0.52;;;;;;;10.96;100.00;98647.91;5556755;32;33606;-67
2022/04/09 00:46:32;;;;;;;1.15;0.50;;;;;;;11.01;100.00;98638.28;5570467;32;34358;-66
2022/04/09 00:49:39;;;;;;;1.02;0.70;;;;;;;11.20;100.00;98631.22;5570336;32;35427;-67
2022/04/09 00:52:47;;;;;;;2.50;0.80;;;;;;;11.08;100.00;98646.22;5556237;32;32819;-67
2022/04/09 00:59:14;;;;;;;3.28;0.60;;;;;;;11.17;100.00;98666.16;5570346;32;34238;-68
2022/04/09 01:02:17;;;;;;;1.52;0.57;;;;;;;11.41;100.00;98686.62;5569673;32;34184;-67
2022/04/09 01:05:20;;;;;;;0.77;0.60;;;;;;;11.45;100.00;98700.28;5556694;32;33212;-68
2022/04/09 01:08:23;;;;;;;1.00;0.60;;;;;;;11.20;100.00;98677.16;5570301;32;34320;-67
2022/04/09 01:11:27;;;;;;;1.02;0.80;;;;;;;10.90;100.00;98649.56;5570271;32;34888;-68
2022/04/09 01:14:30;;;;;;;1.75;0.80;;;;;;;10.87;100.00;98644.69;5570320;32;34209;-67
2022/04/09 01:17:35;;;;;;;2.28;0.60;;;;;;;10.83;100.00;98631.03;5543921;32;33021;-67
2022/04/09 01:20:38;;;;;;;2.67;0.57;;;;;;;10.80;100.00;98618.19;5556246;32;33365;-67
2022/04/09 01:23:41;;;;;;;1.60;0.70;;;;;;;10.86;100.00;98613.87;5570542;32;34176;-67
2022/04/09 01:26:44;;;;;;;1.02;0.60;;;;;;;10.85;100.00;98615.69;5556444;32;32773;-67
2022/04/09 01:29:49;;;;;;;1.92;0.70;;;;;;;10.98;100.00;98606.87;5570137;32;34233;-68
2022/04/09 01:32:53;;;;;;;5.90;0.85;;;;;;;10.95;100.00;98612.59;5570207;32;34900;-68
2022/04/09 01:35:56;;;;;;;0.73;0.57;;;;;;;10.87;100.00;98626.94;5570135;32;34235;-67
2022/04/09 01:38:58;;;;;;;1.20;0.55;;;;;;;10.95;100.00;98643.59;5570419;32;34253;-68
2022/04/09 01:42:02;;;;;;;6.50;1.37;;;;;;;10.95;100.00;98652.37;5570038;32;34696;-68
2022/04/09 01:45:07;;;;;;;1.65;0.77;;;;;;;10.93;100.00;98672.22;5570033;32;34962;-68
2022/04/09 01:48:10;;;;;;;1.02;0.70;;;;;;;10.81;100.00;98658.78;5569860;31;34318;-68
2022/04/09 01:51:12;;;;;;;0.90;0.70;;;;;;;10.64;100.00;98647.03;5570281;32;34961;-68
2022/04/09 01:54:15;;;;;;;1.67;0.70;;;;;;;10.49;100.00;98636.69;5569998;32;34137;-68
2022/04/09 01:57:18;;;;;;;1.10;0.70;;;;;;;10.49;100.00;98654.44;5556278;32;32894;-67
2022/04/09 02:00:22;;;;;;;1.25;0.60;;;;;;;10.50;100.00;98646.28;5569941;32;34231;-68
2022/04/09 02:03:26;;;;;;;1.35;0.62;;;;;;;10.46;100.00;98629.94;5543012;32;33509;-69
2022/04/09 02:06:30;;;;;;;1.50;0.88;;;;;;;10.53;100.00;98623.81;5570221;32;34232;-68
2022/04/09 02:09:33;;;;;;;1.45;0.62;;;;;;;10.48;100.00;98642.19;5569961;32;34273;-68
2022/04/09 02:12:36;;;;;;;3.90;0.75;;;;;;;10.40;100.00;98630.81;5568442;32;34846;-68
2022/04/09 02:15:40;;;;;;;1.23;0.70;;;;;;;10.35;100.00;98635.09;5569768;32;34932;-69
2022/04/09 02:18:43;;;;;;;1.30;0.60;;;;;;;10.27;100.00;98632.66;5556094;32;33662;-70
2022/04/09 02:21:45;;;;;;;2.17;0.80;;;;;;;10.26;100.00;98639.78;5569628;32;34826;-70
2022/04/09 02:24:51;;;;;;;2.78;0.68;;;;;;;10.23;100.00;98645.53;5556336;32;34274;-70
2022/04/09 02:27:54;;;;;;;2.53;1.10;;;;;;;10.14;100.00;98641.44;5569509;32;34937;-70
2022/04/09 02:30:57;;;;;;;2.55;0.75;;;;;;;10.16;100.00;98643.91;5569793;32;34106;-69
2022/04/09 02:34:01;;;;;;;1.33;0.62;;;;;;;10.10;100.00;98637.59;5569904;32;35442;-70
2022/04/09 02:37:05;;;;;;;2.28;0.88;;;;;;;10.16;100.00;98634.13;5569382;32;34297;-71
2022/04/09 02:40:09;;;;;;;1.85;0.70;;;;;;;10.07;100.00;98655.72;5569839;32;34933;-75
2022/04/09 02:43:12;;;;;;;1.98;0.90;;;;;;;10.07;100.00;98656.53;5555661;32;34819;-67
2022/04/09 02:46:16;;;;;;;5.12;0.80;;;;;;;10.02;100.00;98669.59;5569644;32;34255;-69
2022/04/09 02:49:20;;;;;;;4.53;1.25;;;;;;;9.97;100.00;98678.12;5555868;32;34786;-69
2022/04/09 02:52:23;;;;;;;6.82;0.90;;;;;;;9.94;100.00;98683.03;5569270;32;34285;-68
2022/04/09 02:55:25;;;;;;;3.45;1.45;;;;;;;9.95;100.00;98676.72;5569390;32;34191;-68
2022/04/09 02:58:28;;;;;;;1.98;0.90;;;;;;;9.89;100.00;98681.00;5569093;32;35347;-67
2022/04/09 03:01:31;;;;;;;2.58;0.93;;;;;;;9.86;100.00;98680.59;5569359;32;34130;-68
2022/04/09 03:04:34;;;;;;;3.78;1.40;;;;;;;9.88;100.00;98683.84;5569080;32;34170;-68
2022/04/09 03:07:37;;;;;;;3.42;0.95;;;;;;;9.86;100.00;98673.47;5569291;32;34918;-68
2022/04/09 03:10:40;;;;;;;1.40;1.10;;;;;;;9.94;100.00;98672.44;5555233;32;34333;-69
2022/04/09 03:13:42;;;;;;;2.35;1.05;;;;;;;9.93;100.00;98670.81;5568791;32;34859;-69
2022/04/09 03:16:45;;;;;;;2.75;0.90;;;;;;;9.92;100.00;98691.19;5569067;32;34848;-69
2022/04/09 03:19:48;;;;;;;4.45;1.10;;;;;;;9.94;100.00;98688.34;5568733;32;34494;-69
2022/04/09 03:22:53;;;;;;;2.50;0.90;;;;;;;9.86;100.00;98688.56;5568633;32;34232;-69
2022/04/09 03:25:56;;;;;;;1.70;0.90;;;;;;;9.82;100.00;98680.22;5571324;32;34276;-69
2022/04/09 03:28:59;;;;;;;2.50;1.10;;;;;;;9.86;100.00;98673.47;5557604;32;34983;-69
2022/04/09 03:32:02;;;;;;;1.73;1.00;;;;;;;9.87;100.00;98693.66;5571308;32;34128;-69
2022/04/09 03:35:07;;;;;;;2.95;1.17;;;;;;;9.85;100.00;98705.44;5557478;32;32619;-69
2022/04/09 03:38:11;;;;;;;3.05;1.17;;;;;;;9.80;100.00;98700.78;5571082;32;34835;-70
2022/04/09 03:41:14;;;;;;;1.67;0.90;;;;;;;9.76;100.00;98696.09;5571137;32;34168;-69
2022/04/09 03:44:21;;;;;;;4.12;1.20;;;;;;;9.75;100.00;98697.91;5571232;32;34853;-70
2022/04/09 03:47:25;;;;;;;2.22;0.80;;;;;;;9.68;100.00;98691.81;5571089;32;34333;-70
2022/04/09 03:50:28;;;;;;;3.33;1.30;;;;;;;9.63;100.00;98678.38;5571169;32;34225;-70
2022/04/09 03:53:32;;;;;;;2.15;0.77;;;;;;;9.64;100.00;98695.03;5571059;32;34218;-70
2022/04/09 03:56:35;;;;;;;2.72;1.10;;;;;;;9.63;100.00;98707.50;5570970;32;34884;-70
2022/04/09 03:59:38;;;;;;;1.33;0.77;;;;;;;9.63;100.00;98704.03;5571026;32;34097;-70
2022/04/09 04:02:41;;;;;;;1.77;1.00;;;;;;;9.60;100.00;98708.69;5571216;32;34289;-71
2022/04/09 04:05:47;;;;;;;4.43;1.08;;;;;;;9.58;100.00;98710.72;5570872;32;34940;-70
2022/04/09 04:08:50;;;;;;;2.33;1.00;;;;;;;9.56;100.00;98698.72;5557650;32;34311;-69
2022/04/09 04:11:53;;;;;;;2.08;1.23;;;;;;;9.54;100.00;98698.91;5556911;32;32982;-70
2022/04/09 04:14:57;;;;;;;2.30;0.93;;;;;;;9.52;100.00;98700.16;5571108;32;34899;-70
2022/04/09 04:18:02;;;;;;;1.33;0.93;;;;;;;9.47;100.00;98690.16;5570815;32;34245;-70
2022/04/09 04:21:05;;;;;;;1.98;0.90;;;;;;;9.42;100.00;98687.31;5556850;32;34281;-70
2022/04/09 04:24:08;;;;;;;2.92;0.73;;;;;;;9.40;100.00;98685.84;5556918;32;32699;-69
2022/04/09 04:27:11;;;;;;;1.75;0.70;;;;;;;9.36;100.00;98680.16;5570933;32;34433;-70
2022/04/09 04:30:15;;;;;;;1.67;0.75;;;;;;;9.31;100.00;98674.66;5570846;32;34213;-70
2022/04/09 04:33:18;;;;;;;1.70;0.70;;;;;;;9.27;100.00;98664.66;5571009;32;34151;-70
2022/04/09 04:36:22;;;;;;;2.03;0.75;;;;;;;9.24;100.00;98665.09;5556216;32;32668;-70
2022/04/09 04:39:24;;;;;;;1.40;0.90;;;;;;;9.23;100.00;98663.44;5556241;32;33510;-70
2022/04/09 04:42:27;;;;;;;3.78;0.80;;;;;;;9.24;100.00;98660.63;5570588;32;34364;-70
2022/04/09 04:45:32;;;;;;;1.55;0.70;;;;;;;9.22;100.00;98659.16;5570539;32;34207;-71
2022/04/09 04:48:36;;;;;;;1.73;0.80;;;;;;;9.22;100.00;98652.03;5570722;32;34202;-71
2022/04/09 04:51:38;;;;;;;2.28;1.00;;;;;;;9.20;100.00;98632.91;5556498;32;32581;-71
2022/04/09 04:54:41;;;;;;;2.53;1.08;;;;;;;9.18;100.00;98642.88;5556652;32;33268;-71
2022/04/09 04:57:52;;;;;;;2.72;1.30;;;;;;;9.13;100.00;98624.97;5556428;32;33470;-71
2022/04/09 05:00:57;;;;;;;4.93;1.62;;;;;;;9.13;100.00;98611.75;5570380;32;34308;-71
2022/04/09 05:04:01;;;;;;;4.12;1.40;;;;;;;9.10;100.00;98608.69;5556351;32;32704;-70
2022/04/09 05:07:04;;;;;;;3.05;1.33;;;;;;;9.07;100.00;98588.75;5570562;32;35389;-70
2022/04/09 05:10:09;;;;;;;1.90;1.40;;;;;;;9.03;100.00;98576.94;5556281;32;33484;-69
2022/04/09 05:13:12;;;;;;;2.30;1.27;;;;;;;9.02;100.00;98569.19;5570241;32;34982;-69
2022/04/09 05:16:15;;;;;;;2.15;1.30;;;;;;;9.00;100.00;98536.84;5570254;32;34839;-69
2022/04/09 05:19:19;;;;;;;2.15;1.00;;;;;;;9.00;100.00;98564.12;5570152;32;34288;-69
2022/04/09 05:22:22;;;;;;;1.33;0.90;;;;;;;9.01;100.00;98575.50;5556476;32;32660;-68
2022/04/09 05:25:26;;;;;;;1.83;0.85;;;;;;;9.01;100.00;98564.91;5570154;32;34552;-69
2022/04/09 05:28:29;;;;;;;2.35;1.23;;;;;;;8.98;100.00;98562.69;5570110;32;34841;-68
2022/04/09 05:31:33;;;;;;;3.78;1.37;;;;;;;8.98;100.00;98549.47;5555938;32;34096;-68
2022/04/09 05:34:36;;;;;;;2.25;1.00;;;;;;;9.08;100.00;98557.81;5555948;32;32579;-68
2022/04/09 05:37:44;;;;;;;2.28;1.05;;;;;;;9.24;100.00;98553.97;5570497;32;34123;-68
2022/04/09 05:40:47;;;;;;;3.15;0.80;;;;;;;9.31;100.00;98562.69;5570309;32;34122;-68
2022/04/09 05:43:50;;;;;;;2.95;1.00;;;;;;;9.54;100.00;98568.37;5569817;32;34606;-67
2022/04/09 05:46:53;;;;;;;1.50;1.00;;;;;;;9.75;100.00;98589.34;5570037;32;34790;-68
2022/04/09 05:49:58;;;;;;;1.90;1.10;;;;;;;9.78;100.00;98593.44;5555817;32;33028;-67
2022/04/09 05:53:01;;;;;;;2.78;1.42;;;;;;;9.81;100.00;98595.66;5555883;32;32723;-67
2022/04/09 05:56:04;;;;;;;2.60;1.35;;;;;;;9.85;100.00;98592.38;5556171;32;32877;-67
2022/04/09 05:59:07;;;;;;;2.58;1.30;;;;;;;9.80;100.00;98604.63;5569923;32;35475;-67
2022/04/09 06:02:22;;;;;;;4.03;1.30;;;;;;;9.72;100.00;98605.66;5555963;32;32898;-68
2022/04/09 06:05:26;;;;;;;7.40;2.08;;;;;;;9.59;100.00;98609.09;5569811;32;34179;-71
2022/04/09 06:08:33;;;;;;;2.35;1.00;;;;;;;9.32;100.00;98583.66;5556568;32;34241;-71
2022/04/09 06:11:38;;;;;;;2.28;0.73;;;;;;;9.25;100.00;98598.72;5569790;32;34305;-71
2022/04/09 06:14:41;;;;;;;2.00;0.85;;;;;;;9.28;100.00;98600.97;5569749;32;34270;-71
2022/04/09 06:17:43;;;;;;;2.08;0.80;;;;;;;9.37;100.00;98601.59;5569772;32;34255;-70
2022/04/09 06:20:46;;;;;;;2.12;0.80;;;;;;;9.34;100.00;98612.59;5555946;32;32683;-71
2022/04/09 06:23:50;;;;;;;2.58;0.85;;;;;;;9.36;100.00;98608.72;5569856;32;34134;-70
2022/04/09 06:26:53;;;;;;;1.30;0.95;;;;;;;9.30;100.00;98622.75;5569209;32;34950;-70
2022/04/09 06:29:56;;;;;;;1.92;1.02;;;;;;;9.45;100.00;98607.47;5555333;32;34275;-69
2022/04/09 06:32:58;;;;;;;5.30;1.30;;;;;;;9.61;100.00;98590.37;5569813;32;34811;-69
2022/04/09 06:36:02;;;;;;;1.20;0.98;;;;;;;9.67;100.00;98581.63;5556201;32;34273;-68
2022/04/09 06:39:05;;;;;;;2.08;0.98;;;;;;;9.57;100.00;98597.94;5569099;32;34256;-68
2022/04/09 06:42:08;;;;;;;2.53;1.25;;;;;;;9.74;100.00;98600.13;5555191;32;32751;-67
2022/04/09 06:45:13;;;;;;;1.98;1.00;;;;;;;9.67;100.00;98600.16;5542970;32;33584;-68
2022/04/09 06:48:21;;;;;;;2.78;1.40;;;;;;;9.82;100.00;98615.81;5554958;32;35268;-68
2022/04/09 06:51:25;;;;;;;1.73;1.23;;;;;;;9.64;100.00;98608.50;5569283;32;34289;-67
2022/04/09 06:54:28;;;;;;;3.42;1.45;;;;;;;9.64;100.00;98613.78;5569032;32;34488;-68
2022/04/09 06:57:32;;;;;;;1.95;1.10;;;;;;;9.60;100.00;98613.37;5569051;32;34854;-68
2022/04/09 07:00:37;;;;;;;2.72;1.10;;;;;;;9.64;100.00;98605.84;5560925;32;33124;-69
2022/04/09 07:03:40;;;;;;;3.50;1.20;;;;;;;9.56;100.00;98619.28;5561630;32;33054;-68
2022/04/09 07:06:46;;;;;;;2.83;1.70;;;;;;;9.69;100.00;98615.81;5548728;32;32674;-68
2022/04/09 07:09:48;;;;;;;2.60;1.10;;;;;;;9.79;100.00;98616.22;5561464;32;32855;-69
2022/04/09 07:12:51;;;;;;;2.95;1.45;;;;;;;9.55;100.00;98610.53;5575638;32;34133;-69
2022/04/09 07:15:54;;;;;;;1.30;0.90;;;;;;;9.55;100.00;98613.19;5561648;32;34373;-68
2022/04/09 07:18:56;;;;;;;1.55;1.10;;;;;;;9.70;100.00;98638.63;5548593;32;33555;-68
2022/04/09 07:21:59;;;;;;;1.67;1.20;;;;;;;9.75;100.00;98617.66;5575267;32;34322;-68
2022/04/09 07:25:04;;;;;;;2.33;1.30;;;;;;;9.65;100.00;98630.50;5561258;32;33661;-66
2022/04/09 07:28:06;;;;;;;3.15;1.20;;;;;;;9.58;100.00;98778.78;5575031;32;34251;-73
2022/04/09 07:31:09;;;;;;;2.97;0.90;;;;;;;9.44;100.00;98799.06;5560911;32;32695;-70
2022/04/09 07:34:12;;;;;;;0.65;0.40;;;;;;;9.29;100.00;98793.12;5575054;32;34249;-70
2022/04/09 07:37:15;;;;;;;1.02;0.57;;;;;;;9.22;100.00;98805.50;5575020;32;34187;-70
2022/04/09 07:40:19;;;;;;;0.40;0.40;;;;;;;9.07;100.00;98818.06;5574917;32;34555;-71
2022/04/09 07:43:22;;;;;;;0.60;0.50;;;;;;;9.08;100.00;98831.09;5560599;32;32672;-69
2022/04/09 07:46:24;;;;;;;1.25;0.65;;;;;;;8.88;100.00;98821.41;5574849;32;34331;-71
2022/04/09 07:49:34;;;;;;;1.00;0.70;;;;;;;8.78;100.00;98828.88;5574704;32;34621;-70
2022/04/09 07:52:42;;;;;;;3.22;0.75;;;;;;;8.81;100.00;98825.84;5561002;32;34569;-71
2022/04/09 07:55:45;;;;;;;1.25;0.52;;;;;;;8.77;100.00;98828.06;5560412;32;32439;-71
2022/04/09 07:58:48;;;;;;;2.10;0.70;;;;;;;8.82;100.00;98808.97;5574498;32;34338;-70
2022/04/09 08:01:50;;;;;;;0.62;0.43;;;;;;;8.84;100.00;98806.94;5547765;32;32790;-71
2022/04/09 08:04:54;;;;;;;1.10;0.60;;;;;;;8.93;100.00;98789.91;5560341;32;34239;-71
2022/04/09 08:07:57;;;;;;;1.40;0.50;;;;;;;9.14;100.00;98789.81;5560596;32;33616;-71
2022/04/09 08:11:01;;;;;;;1.20;0.57;;;;;;;9.43;100.00;98789.53;5558450;32;32896;-70
2022/04/09 08:14:03;;;;;;;1.08;0.50;;;;;;;9.69;100.00;98798.53;5557065;32;32576;-70
2022/04/09 08:17:06;;;;;;;1.10;0.45;;;;;;;9.87;100.00;98809.38;5556819;32;33514;-70
2022/04/09 08:20:09;;;;;;;1.55;0.60;;;;;;;9.87;100.00;98807.56;5556760;32;34249;-69
2022/04/09 08:23:12;;;;;;;0.75;0.32;;;;;;;9.88;100.00;98818.94;5556490;32;33602;-69
2022/04/09 08:26:15;;;;;;;2.05;0.70;;;;;;;9.82;100.00;98819.75;5570971;32;34316;-70
2022/04/09 08:29:20;;;;;;;2.03;0.60;;;;;;;9.78;100.00;98824.63;5570693;32;34294;-70
2022/04/09 08:32:25;;;;;;;2.25;0.70;;;;;;;9.78;100.00;98832.56;5557178;32;34305;-70
2022/04/09 08:35:28;;;;;;;1.60;0.60;;;;;;;9.88;100.00;98840.94;5556628;32;33608;-70
2022/04/09 08:38:30;;;;;;;1.10;0.60;;;;;;;9.68;100.00;98839.28;5556421;32;33235;-70
2022/04/09 08:41:40;;;;;;;1.40;0.60;;;;;;;9.60;100.00;98840.25;5556880;32;32640;-70
2022/04/09 08:44:42;;;;;;;2.85;0.50;;;;;;;9.73;100.00;98848.22;5556674;32;32961;-71
2022/04/09 08:47:46;;;;;;;3.03;0.70;;;;;;;9.74;100.00;98852.53;5570483;32;34789;-70
2022/04/09 08:50:49;;;;;;;3.05;0.52;;;;;;;9.81;100.00;98841.94;5555955;32;33761;-71
2022/04/09 08:53:52;;;;;;;1.10;0.50;;;;;;;9.77;100.00;98843.37;5570733;32;34132;-70
2022/04/09 08:56:54;;;;;;;0.98;0.68;;;;;;;9.78;100.00;98843.16;5570793;32;34127;-70
2022/04/09 09:00:01;;;;;;;0.85;0.45;;;;;;;9.89;100.00;98841.75;5570380;32;34244;-70
2022/04/09 09:03:05;;;;;;;1.15;0.50;;;;;;;9.88;100.00;98848.06;5570654;32;34876;-70
2022/04/09 09:06:27;;;;;;;1.83;0.68;;;;;;;9.75;100.00;98854.16;5556450;32;33745;-70
2022/04/09 09:09:32;;;;;;;0.75;0.47;;;;;;;9.63;100.00;98865.53;5570201;32;34885;-72
2022/04/09 09:12:35;;;;;;;0.80;0.50;;;;;;;9.62;100.00;98867.38;5556289;32;32937;-71
2022/04/09 09:15:52;;;;;;;3.33;0.50;;;;;;;9.61;100.00;98892.19;5570331;32;34388;-69
2022/04/09 09:18:59;;;;;;;0.57;0.57;;;;;;;9.64;100.00;98890.97;5556278;32;33763;-70
2022/04/09 09:22:05;;;;;;;1.90;0.52;;;;;;;9.73;100.00;98898.53;5555945;32;32947;-70
2022/04/09 09:25:12;;;;;;;1.30;0.75;;;;;;;9.84;100.00;98884.75;5556007;32;32959;-70
2022/04/09 09:28:25;;;;;;;2.03;0.75;;;;;;;9.91;100.00;98893.53;5570129;32;34870;-70
2022/04/09 09:31:41;;;;;;;1.00;0.70;;;;;;;10.03;100.00;98896.41;5556016;32;32762;-68
2022/04/09 09:34:53;;;;;;;2.50;0.70;;;;;;;10.07;100.00;98891.53;5569925;32;34337;-66
2022/04/09 09:38:34;;;;;;;1.52;0.65;;;;;;;10.08;100.00;98891.31;5556131;32;32415;-67
2022/04/09 09:41:50;;;;;;;0.75;0.60;;;;;;;10.03;100.00;98901.69;5570006;32;34244;-66
2022/04/09 09:44:54;;;;;;;0.98;0.70;;;;;;;9.83;100.00;98912.22;5556073;32;33130;-66
2022/04/09 09:47:57;;;;;;;0.95;0.50;;;;;;;9.58;100.00;98937.62;5555898;32;33101;-67
2022/04/09 09:51:05;;;;;;;1.00;0.70;;;;;;;9.28;100.00;98952.91;5570190;32;34889;-68
2022/04/09 09:54:13;;;;;;;0.98;0.70;;;;;;;9.17;100.00;98971.97;5556339;32;32724;-69
2022/04/09 09:57:20;;;;;;;0.80;0.60;;;;;;;9.14;100.00;98998.81;5555833;32;32784;-69
2022/04/09 10:00:24;;;;;;;1.05;0.60;;;;;;;8.75;100.00;99015.16;5569727;32;34215;-71
2022/04/09 10:03:27;;;;;;;1.37;0.85;;;;;;;8.45;100.00;99011.00;5556061;32;32809;-72
2022/04/09 10:06:35;;;;;;;0.73;0.60;;;;;;;8.46;100.00;99008.19;5542843;32;34105;-71
2022/04/09 10:09:38;;;;;;;0.85;0.68;;;;;;;8.43;100.00;99023.56;5555728;32;32492;-71
2022/04/09 10:12:42;;;;;;;1.23;0.80;;;;;;;8.33;100.00;99036.28;5570036;32;35352;-70
2022/04/09 10:15:48;;;;;;;1.42;0.93;;;;;;;8.32;100.00;99055.78;5569469;32;34924;-72
2022/04/09 10:18:55;;;;;;;1.12;0.90;;;;;;;8.29;100.00;99046.34;5555463;32;34227;-69
2022/04/09 10:22:03;;;;;;;1.40;1.00;;;;;;;8.33;100.00;99052.94;5543918;32;34128;-70
2022/04/09 10:25:08;;;;;;;1.95;1.00;;;;;;;8.45;100.00;99067.31;5555720;32;32872;-71
2022/04/09 10:28:11;;;;;;;1.37;1.02;;;;;;;8.36;100.00;99052.59;5569278;32;34229;-71
2022/04/09 10:31:22;;;;;;;1.42;1.00;;;;;;;8.59;100.00;99055.87;5530109;32;32751;-70
2022/04/09 10:34:25;;;;;;;1.80;1.20;;;;;;;8.44;100.00;99044.53;5554474;32;33768;-69
2022/04/09 10:37:28;;;;;;;1.42;1.05;;;;;;;8.13;100.00;99046.59;5555615;32;32975;-70
2022/04/09 10:40:37;;;;;;;1.48;1.05;;;;;;;8.11;100.00;99052.03;5555362;32;32986;-69
2022/04/09 10:43:40;;;;;;;1.12;1.02;;;;;;;8.05;99.67;99052.78;5555212;32;34088;-69
2022/04/09 10:46:51;;;;;;;1.37;1.00;;;;;;;7.95;96.17;99049.59;5555255;32;33347;-69
2022/04/09 10:49:59;;;;;;;1.83;1.12;;;;;;;7.97;97.15;99060.81;5555366;32;32845;-68
2022/04/09 10:53:02;;;;;;;1.02;0.85;;;;;;;8.00;97.83;99078.91;5569526;32;34830;-68
2022/04/09 10:56:25;;;;;;;1.02;0.93;;;;;;;7.89;94.42;99089.91;5555491;32;32939;-69
2022/04/09 10:59:31;;;;;;;1.25;0.93;;;;;;;7.93;96.85;99122.09;5568970;32;35199;-68
2022/04/09 11:02:34;;;;;;;1.17;1.08;;;;;;;7.95;95.49;99101.59;5569352;32;34345;-70
2022/04/09 11:05:40;;;;;;;0.70;0.70;;;;;;;7.91;95.10;99106.41;5555166;32;34169;-69
2022/04/09 11:08:56;;;;;;;1.35;0.80;;;;;;;7.85;91.71;99126.44;5554590;32;34211;-70
2022/04/09 11:12:01;;;;;;;1.17;0.60;;;;;;;7.75;89.68;99104.75;5568985;32;34747;-72
2022/04/09 11:15:10;;;;;;;4.32;0.60;;;;;;;7.71;87.56;99121.97;5568841;32;34928;-71
2022/04/09 11:18:13;;;;;;;1.17;0.70;;;;;;;7.64;88.67;99110.50;5555070;32;33403;-70
2022/04/09 11:21:17;;;;;;;2.22;0.77;;;;;;;7.56;86.59;99112.38;5566741;32;33066;-68
2022/04/09 11:24:20;;;;;;;0.75;0.70;;;;;;;7.70;88.28;99140.59;5541904;32;32834;-70
2022/04/09 11:27:22;;;;;;;0.82;0.73;;;;;;;7.52;87.40;99153.31;5568770;32;34811;-69
2022/04/09 11:30:25;;;;;;;2.12;1.10;;;;;;;7.59;87.39;99172.75;5554341;32;32682;-70
2022/04/09 11:33:28;;;;;;;1.02;0.70;;;;;;;7.76;86.53;99182.12;5554189;32;33756;-71
2022/04/09 11:36:32;;;;;;;1.12;0.77;;;;;;;7.81;86.97;99193.00;5554709;32;34236;-71
2022/04/09 11:39:43;;;;;;;0.95;0.70;;;;;;;7.95;86.00;99207.22;5554479;32;33474;-70
2022/04/09 11:42:54;;;;;;;1.00;0.70;;;;;;;7.97;85.24;99216.63;5541389;32;34593;-70
2022/04/09 11:46:03;;;;;;;3.90;0.90;;;;;;;8.18;84.09;99223.84;5555789;32;33680;-69
2022/04/09 11:49:07;;;;;;;1.53;0.83;;;;;;;8.16;84.22;99234.59;5570812;32;34299;-69
2022/04/09 11:52:11;;;;;;;1.87;0.60;;;;;;;7.93;83.99;99228.53;5557164;32;33688;-69
2022/04/09 11:55:16;;;;;;;1.35;0.68;;;;;;;8.17;81.63;99222.19;5570878;32;34238;-69
2022/04/09 11:58:29;;;;;;;1.20;0.90;;;;;;;8.30;80.55;99235.62;5544383;32;33569;-70
2022/04/09 12:01:32;;;;;;;2.55;0.80;;;;;;;8.32;79.23;99241.56;5556684;32;33604;-70
2022/04/09 12:04:39;;;;;;;1.05;0.70;;;;;;;8.46;77.29;99272.47;5556901;32;32632;-69
2022/04/09 12:07:46;;;;;;;2.83;0.82;;;;;;;8.52;77.72;99271.72;5556872;32;34550;-70
2022/04/09 12:10:50;;;;;;;1.33;0.68;;;;;;;8.52;74.98;99289.44;5556843;32;33584;-71
2022/04/09 12:13:52;;;;;;;0.88;0.68;;;;;;;8.61;74.52;99290.97;5570621;32;34148;-70
2022/04/09 12:16:56;;;;;;;1.12;0.70;;;;;;;8.46;74.03;99304.19;5570898;32;34799;-71
2022/04/09 12:19:59;;;;;;;1.12;0.60;;;;;;;8.80;73.67;99289.63;5557098;32;34200;-70
2022/04/09 12:23:04;;;;;;;1.12;0.60;;;;;;;8.69;73.14;99304.94;5570640;32;34247;-68
2022/04/09 12:26:23;;;;;;;1.83;0.80;;;;;;;8.91;71.16;99323.53;5556454;32;34159;-68
2022/04/09 12:29:27;;;;;;;2.00;0.95;;;;;;;8.45;72.05;99331.63;5556535;32;33484;-71
2022/04/09 12:32:31;;;;;;;1.05;0.62;;;;;;;8.38;71.07;99329.84;5544128;32;32728;-69
2022/04/09 12:35:34;;;;;;;0.90;0.70;;;;;;;8.19;70.52;99329.31;5556464;32;33158;-69
2022/04/09 12:38:41;;;;;;;3.28;0.95;;;;;;;8.23;71.95;99343.81;5570497;32;34353;-69
2022/04/09 12:41:45;;;;;;;1.70;0.80;;;;;;;8.22;71.51;99326.34;5570616;32;35485;-70
2022/04/09 12:44:48;;;;;;;2.20;1.10;;;;;;;8.11;70.81;99325.94;5556359;32;32834;-70
2022/04/09 12:47:59;;;;;;;1.45;0.88;;;;;;;8.08;70.87;99319.19;5556724;32;32583;-69
2022/04/09 12:51:02;;;;;;;1.30;1.00;;;;;;;8.34;70.58;99308.25;5570198;32;34146;-72
2022/04/09 12:54:05;;;;;;;2.00;1.00;;;;;;;8.29;70.47;99295.59;5556562;32;32730;-70
2022/04/09 12:57:10;;;;;;;1.40;0.90;;;;;;;8.20;69.08;99311.66;5569719;32;34184;-70
2022/04/09 13:00:15;;;;;;;2.45;1.10;;;;;;;8.43;69.24;99285.19;5556324;32;34440;-70
2022/04/09 13:03:18;;;;;;;1.80;1.20;;;;;;;8.63;67.48;99273.09;5556325;32;33704;-69
2022/04/09 13:06:21;;;;;;;1.92;0.85;;;;;;;8.70;65.78;99303.12;5556318;32;34253;-70
2022/04/09 13:09:23;;;;;;;1.50;0.93;;;;;;;8.66;67.55;99301.84;5555819;32;34421;-70
2022/04/09 13:12:28;;;;;;;2.00;0.93;;;;;;;8.66;66.85;99300.03;5570529;32;34204;-68
2022/04/09 13:15:31;;;;;;;2.97;1.10;;;;;;;8.65;67.23;99281.69;5556440;32;33534;-70
2022/04/09 13:18:34;;;;;;;3.92;0.73;;;;;;;8.64;67.27;99299.37;5570237;32;34164;-70
2022/04/09 13:21:37;;;;;;;1.48;0.80;;;;;;;8.27;66.44;99283.53;5556440;32;34876;-70
2022/04/09 13:24:40;;;;;;;1.45;0.80;;;;;;;8.53;66.61;99306.91;5543649;32;33529;-72
2022/04/09 13:27:44;;;;;;;0.90;0.70;;;;;;;8.55;66.56;99318.13;5570467;32;34250;-71
2022/04/09 13:30:47;;;;;;;2.17;1.15;;;;;;;8.62;66.93;99335.72;5549648;32;32704;-69
2022/04/09 13:33:50;;;;;;;2.67;1.00;;;;;;;8.58;67.91;99344.19;5550999;32;34269;-71
2022/04/09 13:36:53;;;;;;;2.80;1.25;;;;;;;8.46;67.89;99327.16;5550955;32;34371;-72
2022/04/09 13:39:56;;;;;;;1.95;0.80;;;;;;;8.44;67.93;99324.69;5550500;32;34314;-69
2022/04/09 13:43:00;;;;;;;1.17;0.90;;;;;;;8.56;67.25;99327.72;5550828;32;34233;-72
2022/04/09 13:46:03;;;;;;;2.97;1.10;;;;;;;8.66;68.03;99341.50;5523970;32;34088;-72
2022/04/09 13:49:06;;;;;;;1.52;1.08;;;;;;;8.64;66.83;99349.59;5550375;32;34200;-71
2022/04/09 13:52:09;;;;;;;1.67;1.10;;;;;;;8.70;66.97;99356.00;5550856;32;34196;-71
2022/04/09 13:55:12;;;;;;;1.85;1.00;;;;;;;8.61;65.98;99370.28;5550417;32;34179;-71
2022/04/09 13:58:15;;;;;;;2.15;1.30;;;;;;;8.87;66.78;99369.84;5549648;32;34176;-71
2022/04/09 14:01:18;;;;;;;1.58;1.40;;;;;;;8.96;65.54;99374.88;5550656;32;34209;-71
2022/04/09 14:04:22;;;;;;;2.08;1.27;;;;;;;9.05;66.10;99365.84;5550236;32;34228;-69
2022/04/09 14:07:25;;;;;;;2.45;1.50;;;;;;;9.22;64.89;99355.91;5536212;32;33185;-70
2022/04/09 14:10:28;;;;;;;1.62;1.33;;;;;;;10.06;63.93;99374.78;5550265;32;34218;-70
2022/04/09 14:13:30;;;;;;;4.37;1.70;;;;;;;9.76;64.11;99366.94;5550502;32;34331;-70
2022/04/09 14:16:33;;;;;;;1.95;1.50;;;;;;;10.08;63.33;99355.03;5549191;32;32602;-70
2022/04/09 14:19:36;;;;;;;2.75;1.40;;;;;;;10.21;62.03;99363.16;5549135;32;32861;-70
2022/04/09 14:22:39;;;;;;;2.65;1.52;;;;;;;10.56;63.93;99358.75;5536563;32;33365;-70
2022/04/09 14:25:42;;;;;;;3.85;1.65;;;;;;;10.27;61.62;99351.78;5536146;32;33633;-71
2022/04/09 14:28:47;;;;;;;2.40;1.35;;;;;;;9.85;62.57;99349.94;5549342;32;32848;-69
2022/04/09 14:31:50;;;;;;;4.15;1.42;;;;;;;9.34;63.74;99358.91;5536361;32;32536;-70